Time;durP1;ratioP1;P1;durP2;ratioP2;P2;SDS_P1;SDS_P2;PMS_P1;PMS_P2;Temp;Humidity;BMP_temperature;BMP_pressure;BME280_temperature;BME280_humidity;BME280_pressure;Samples;Min_cycle;Max_cycle;Signal;HPM_P1;HPM_P2
2021/01/07 00:00:42;;;;;;;27.50;12.93;;;1.50;97.30;;;;;;5036409;28;20229;-68
2021/01/07 00:03:07;;;;;;;26.80;10.70;;;1.50;97.20;;;;;;5036541;28;20171;-70
2021/01/07 00:05:33;;;;;;;26.27;12.93;;;1.50;97.20;;;;;;5036321;28;20168;-68
2021/01/07 00:07:59;;;;;;;31.15;16.25;;;1.40;97.30;;;;;;5036701;28;20178;-71
2021/01/07 00:10:25;;;;;;;23.33;14.37;;;1.50;97.30;;;;;;5036456;28;20203;-69
2021/01/07 00:12:51;;;;;;;24.10;13.20;;;1.50;97.30;;;;;;5036382;28;20290;-68
2021/01/07 00:15:16;;;;;;;21.73;13.00;;;1.40;97.30;;;;;;5036157;28;20402;-71
2021/01/07 00:17:42;;;;;;;26.67;12.27;;;1.40;97.50;;;;;;5036489;28;20467;-69
2021/01/07 00:20:14;;;;;;;27.57;13.30;;;1.70;97.40;;;;;;5036061;28;20194;-70
2021/01/07 00:22:40;;;;;;;21.58;13.32;;;1.70;97.00;;;;;;5036605;28;20171;-69
2021/01/07 00:25:07;;;;;;;23.40;13.18;;;1.80;96.90;;;;;;5036274;28;20183;-68
2021/01/07 00:27:33;;;;;;;22.73;12.23;;;1.90;96.70;;;;;;5035966;28;20186;-68
2021/01/07 00:29:59;;;;;;;21.90;12.30;;;1.80;96.40;;;;;;5036042;28;20677;-69
2021/01/07 00:32:25;;;;;;;20.13;12.35;;;1.80;96.50;;;;;;5035942;28;20277;-68
2021/01/07 00:34:51;;;;;;;21.33;11.03;;;1.80;96.60;;;;;;5036030;28;20306;-67
2021/01/07 00:37:17;;;;;;;28.03;15.73;;;1.80;96.60;;;;;;5035820;28;20660;-71
2021/01/07 00:39:43;;;;;;;27.60;13.73;;;1.80;96.60;;;;;;5034659;28;20956;-70
2021/01/07 00:42:09;;;;;;;30.83;13.00;;;1.80;96.60;;;;;;5035845;28;20180;-69
2021/01/07 00:44:34;;;;;;;18.97;11.17;;;1.80;96.50;;;;;;5035763;28;20258;-69
2021/01/07 00:47:00;;;;;;;26.73;13.80;;;1.70;96.70;;;;;;5034352;28;20417;-69
2021/01/07 00:49:25;;;;;;;25.17;11.13;;;1.70;96.80;;;;;;5035208;28;20266;-68
2021/01/07 00:51:51;;;;;;;25.83;14.13;;;1.80;96.70;;;;;;5035201;28;20205;-69
2021/01/07 00:54:18;;;;;;;20.80;10.77;;;1.80;96.50;;;;;;5035618;28;20182;-69
2021/01/07 00:56:44;;;;;;;25.67;14.07;;;1.80;96.50;;;;;;5035466;28;20174;-69
2021/01/07 00:59:10;;;;;;;15.70;10.60;;;1.80;96.50;;;;;;5035601;28;20637;-70
2021/01/07 01:01:48;;;;;;;30.47;14.67;;;1.60;96.70;;;;;;5035437;28;20205;-68
2021/01/07 01:04:15;;;;;;;22.30;11.15;;;1.40;97.20;;;;;;5035466;28;20514;-70
2021/01/07 01:06:41;;;;;;;19.23;10.60;;;1.50;97.40;;;;;;5035100;28;20186;-70
2021/01/07 01:09:10;;;;;;;14.80;10.05;;;1.50;97.10;;;;;;5035622;28;20574;-68
2021/01/07 01:11:43;;;;;;;16.80;10.25;;;1.60;97.00;;;;;;5035022;28;20208;-70
2021/01/07 01:14:11;;;;;;;24.25;9.18;;;1.70;96.80;;;;;;5035266;28;20170;-68
2021/01/07 01:16:37;;;;;;;24.25;9.77;;;1.50;96.70;;;;;;5035137;28;20262;-70
2021/01/07 01:19:04;;;;;;;16.57;10.47;;;1.40;97.00;;;;;;5035220;28;20203;-70
2021/01/07 01:21:29;;;;;;;11.65;7.97;;;1.40;97.20;;;;;;5035106;28;20171;-70
2021/01/07 01:23:55;;;;;;;20.03;8.87;;;1.40;97.30;;;;;;5033849;28;20252;-71
2021/01/07 01:26:21;;;;;;;13.43;8.80;;;1.50;97.10;;;;;;5034926;28;20175;-68
2021/01/07 01:28:47;;;;;;;11.37;7.60;;;1.60;96.80;;;;;;5034995;28;20452;-69
2021/01/07 01:31:12;;;;;;;16.67;9.17;;;1.60;96.90;;;;;;5034745;28;20207;-70
2021/01/07 01:33:38;;;;;;;17.70;10.03;;;1.50;96.90;;;;;;5034951;28;20405;-69
2021/01/07 01:36:06;;;;;;;13.67;8.20;;;1.60;97.00;;;;;;5034704;28;20163;-69
2021/01/07 01:38:32;;;;;;;18.23;10.50;;;1.70;96.90;;;;;;5034995;28;20402;-68
2021/01/07 01:41:02;;;;;;;16.88;8.80;;;1.70;96.70;;;;;;5034628;28;20202;-70
2021/01/07 01:43:28;;;;;;;15.95;8.90;;;1.80;96.70;;;;;;5034857;28;20170;-69
2021/01/07 01:45:54;;;;;;;14.77;8.13;;;1.80;96.50;;;;;;5034638;28;20211;-68
2021/01/07 01:48:20;;;;;;;13.40;7.90;;;1.80;96.40;;;;;;5034767;28;20250;-71
2021/01/07 01:50:46;;;;;;;15.68;7.05;;;1.80;96.40;;;;;;5034515;28;20191;-69
2021/01/07 01:53:12;;;;;;;17.25;8.65;;;1.90;96.30;;;;;;5034599;28;20206;-70
2021/01/07 01:55:41;;;;;;;10.10;6.93;;;1.80;96.30;;;;;;5034229;28;20172;-71
2021/01/07 01:58:08;;;;;;;12.80;7.18;;;1.80;96.50;;;;;;5034506;28;20246;-68
2021/01/07 02:00:33;;;;;;;11.45;7.78;;;1.60;96.60;;;;;;5034016;28;20218;-67
2021/01/07 02:02:59;;;;;;;10.03;6.93;;;1.80;96.80;;;;;;5034272;28;20170;-68
2021/01/07 02:05:24;;;;;;;10.57;6.27;;;1.90;96.70;;;;;;5034271;28;20171;-68
2021/01/07 02:07:52;;;;;;;9.77;6.40;;;2.00;96.50;;;;;;5034074;28;20184;-68
2021/01/07 02:10:18;;;;;;;10.85;7.68;;;2.00;96.20;;;;;;5034157;28;20198;-68
2021/01/07 02:12:45;;;;;;;10.93;5.80;;;1.80;96.40;;;;;;5034103;28;20591;-70
2021/01/07 02:15:13;;;;;;;11.75;5.80;;;1.90;96.60;;;;;;5034177;28;20403;-69
2021/01/07 02:17:39;;;;;;;11.73;6.03;;;1.90;96.50;;;;;;5034111;28;20705;-70
2021/01/07 02:20:05;;;;;;;12.57;6.90;;;1.90;96.40;;;;;;5034137;28;20230;-68
2021/01/07 02:22:31;;;;;;;8.70;5.72;;;1.90;96.60;;;;;;5034089;28;20228;-67
2021/01/07 02:24:56;;;;;;;8.70;6.60;;;1.90;96.40;;;;;;5034013;28;20175;-69
2021/01/07 02:27:22;;;;;;;9.03;7.20;;;1.80;96.50;;;;;;5033778;28;20182;-71
2021/01/07 02:29:48;;;;;;;17.80;6.97;;;1.80;96.50;;;;;;5034023;28;20183;-69
2021/01/07 02:32:13;;;;;;;6.73;5.43;;;1.90;96.40;;;;;;5033841;28;20218;-70
2021/01/07 02:34:39;;;;;;;8.97;5.63;;;2.00;96.20;;;;;;5033892;28;20675;-71
2021/01/07 02:37:05;;;;;;;11.37;6.87;;;2.00;96.10;;;;;;5033582;28;20167;-70
2021/01/07 02:39:31;;;;;;;10.93;7.53;;;1.90;96.00;;;;;;5033620;28;20206;-69
2021/01/07 02:41:57;;;;;;;7.83;5.30;;;1.90;96.20;;;;;;5033693;28;20562;-71
2021/01/07 02:44:24;;;;;;;8.93;5.13;;;1.90;96.20;;;;;;5033657;28;20201;-70
2021/01/07 02:46:50;;;;;;;12.68;6.18;;;2.00;96.20;;;;;;5033520;28;20180;-68
2021/01/07 02:49:17;;;;;;;14.15;7.40;;;2.00;96.20;;;;;;5033807;28;20186;-69
2021/01/07 02:51:43;;;;;;;6.55;5.28;;;2.00;96.10;;;;;;5033481;28;20218;-70
2021/01/07 02:54:09;;;;;;;7.20;5.70;;;2.00;96.10;;;;;;5033535;28;20175;-68
2021/01/07 02:56:34;;;;;;;7.93;6.30;;;2.00;96.00;;;;;;5033391;28;20404;-69
2021/01/07 02:59:01;;;;;;;11.47;6.57;;;2.10;96.00;;;;;;5033488;28;20481;-70
2021/01/07 03:01:27;;;;;;;11.75;6.70;;;2.10;95.90;;;;;;5033379;28;20187;-71
2021/01/07 03:03:55;;;;;;;11.43;6.60;;;2.00;95.90;;;;;;5033475;28;20175;-70
2021/01/07 03:06:21;;;;;;;6.85;6.18;;;2.00;96.10;;;;;;5033156;28;20432;-70
2021/01/07 03:08:47;;;;;;;12.45;6.75;;;1.80;96.20;;;;;;5033404;28;20634;-69
2021/01/07 03:11:13;;;;;;;11.30;7.07;;;1.80;96.30;;;;;;5033177;28;20203;-69
2021/01/07 03:13:39;;;;;;;10.40;5.40;;;1.80;96.30;;;;;;5034910;28;20405;-70
2021/01/07 03:16:05;;;;;;;9.43;7.70;;;1.80;96.40;;;;;;5037416;28;20257;-68
2021/01/07 03:18:30;;;;;;;8.07;5.60;;;1.80;96.50;;;;;;5037570;28;20629;-67
2021/01/07 03:20:56;;;;;;;9.03;6.03;;;1.70;96.70;;;;;;5037181;28;20491;-70
2021/01/07 03:23:21;;;;;;;11.07;5.27;;;1.70;96.70;;;;;;5037315;28;20171;-70
2021/01/07 03:25:47;;;;;;;13.20;6.23;;;1.70;96.80;;;;;;5037131;28;20230;-69
2021/01/07 03:28:13;;;;;;;10.50;8.07;;;1.80;96.80;;;;;;5037327;28;20182;-71
2021/01/07 03:30:38;;;;;;;13.00;6.50;;;1.80;96.60;;;;;;5037205;28;20195;-69
2021/01/07 03:33:04;;;;;;;5.77;5.23;;;1.80;96.70;;;;;;5037033;28;20690;-68
2021/01/07 03:35:30;;;;;;;11.97;6.60;;;1.90;96.50;;;;;;5036970;28;20416;-70
2021/01/07 03:37:55;;;;;;;11.70;6.73;;;2.00;96.30;;;;;;5037075;28;20406;-69
2021/01/07 03:40:21;;;;;;;9.17;5.23;;;2.00;96.30;;;;;;5037124;28;20217;-70
2021/01/07 03:42:47;;;;;;;12.90;6.63;;;2.00;96.30;;;;;;5037199;28;20187;-70
2021/01/07 03:45:13;;;;;;;6.80;5.30;;;1.80;96.50;;;;;;5036962;28;20183;-68
2021/01/07 03:47:39;;;;;;;10.07;6.32;;;2.00;96.60;;;;;;5036795;28;20180;-71
2021/01/07 03:50:05;;;;;;;12.50;7.70;;;2.10;96.40;;;;;;5036966;28;20221;-69
2021/01/07 03:52:30;;;;;;;12.27;6.90;;;2.10;96.20;;;;;;5036702;28;20620;-68
2021/01/07 03:54:56;;;;;;;13.23;7.70;;;1.90;96.30;;;;;;5037179;28;20259;-69
2021/01/07 03:57:22;;;;;;;12.03;5.60;;;1.70;96.80;;;;;;5036575;28;20168;-69
2021/01/07 03:59:47;;;;;;;14.60;6.70;;;1.80;97.00;;;;;;5035231;28;20202;-71
2021/01/07 04:02:13;;;;;;;9.10;4.97;;;1.60;97.10;;;;;;5036745;28;20164;-70
2021/01/07 04:04:38;;;;;;;17.57;8.60;;;1.60;97.40;;;;;;5035500;28;20218;-68
2021/01/07 04:07:04;;;;;;;12.93;6.80;;;1.70;97.50;;;;;;5036405;28;20203;-69
2021/01/07 04:09:30;;;;;;;12.40;7.63;;;1.80;97.20;;;;;;5036494;28;20191;-70
2021/01/07 04:11:55;;;;;;;9.20;6.33;;;1.90;97.00;;;;;;5036515;28;20202;-70
2021/01/07 04:14:22;;;;;;;12.23;7.90;;;2.00;96.90;;;;;;5036536;28;20259;-70
2021/01/07 04:16:48;;;;;;;14.10;8.43;;;2.00;96.80;;;;;;5036147;28;20191;-71
2021/01/07 04:19:13;;;;;;;8.67;6.60;;;1.90;97.10;;;;;;5036321;28;20196;-69
2021/01/07 04:21:46;;;;;;;14.50;8.33;;;1.80;97.10;;;;;;5036314;28;20171;-71
2021/01/07 04:24:13;;;;;;;9.23;5.70;;;1.90;97.20;;;;;;5036143;28;20252;-69
2021/01/07 04:26:43;;;;;;;15.10;8.07;;;2.00;97.10;;;;;;5036088;28;20522;-68
2021/01/07 04:29:10;;;;;;;14.88;8.35;;;1.90;97.00;;;;;;5036245;28;20183;-69
2021/01/07 04:31:35;;;;;;;9.52;6.47;;;2.00;97.10;;;;;;5036206;28;20242;-70
2021/01/07 04:34:01;;;;;;;13.37;7.80;;;2.00;97.00;;;;;;5036264;28;20203;-70
2021/01/07 04:36:27;;;;;;;12.13;7.37;;;1.90;97.20;;;;;;5036029;28;20171;-69
2021/01/07 04:38:54;;;;;;;8.67;6.03;;;1.80;97.30;;;;;;5035956;28;20402;-68
2021/01/07 04:41:21;;;;;;;15.50;7.00;;;1.90;97.50;;;;;;5035891;28;20413;-69
2021/01/07 04:43:47;;;;;;;12.60;7.72;;;1.90;97.40;;;;;;5035964;28;20517;-70
2021/01/07 04:46:13;;;;;;;13.20;7.45;;;1.70;97.50;;;;;;5035624;28;20178;-71
2021/01/07 04:48:39;;;;;;;8.02;5.70;;;1.90;97.50;;;;;;5035802;28;20180;-68
2021/01/07 04:51:05;;;;;;;11.80;6.97;;;2.00;97.30;;;;;;5035577;28;20199;-71
2021/01/07 04:53:31;;;;;;;12.75;6.97;;;2.10;97.00;;;;;;5035770;28;20202;-70
2021/01/07 04:55:57;;;;;;;12.00;8.55;;;1.90;96.90;;;;;;5035573;28;20237;-70
2021/01/07 04:58:22;;;;;;;13.07;7.00;;;1.70;97.10;;;;;;5035790;28;20175;-70
2021/01/07 05:00:49;;;;;;;10.40;6.17;;;1.80;97.30;;;;;;5035420;28;20207;-69
2021/01/07 05:03:28;;;;;;;12.07;6.55;;;1.80;97.20;;;;;;5035474;28;20513;-70
2021/01/07 05:05:54;;;;;;;12.02;5.35;;;2.00;97.20;;;;;;5035438;28;20215;-68
2021/01/07 05:08:20;;;;;;;13.47;6.33;;;2.00;97.00;;;;;;5035533;28;20200;-69
2021/01/07 05:10:46;;;;;;;12.87;6.70;;;2.00;96.90;;;;;;5035297;28;20196;-71
2021/01/07 05:13:16;;;;;;;11.20;8.90;;;2.10;96.80;;;;;;5035095;28;20492;-67
2021/01/07 05:15:42;;;;;;;14.98;8.45;;;2.20;96.60;;;;;;5035344;28;20254;-70
2021/01/07 05:18:08;;;;;;;7.30;5.73;;;2.20;96.40;;;;;;5035250;28;20593;-70
2021/01/07 05:20:34;;;;;;;11.80;7.53;;;2.20;96.30;;;;;;5035070;28;20245;-69
2021/01/07 05:23:00;;;;;;;12.70;6.90;;;2.20;96.30;;;;;;5035465;28;20641;-69
2021/01/07 05:25:29;;;;;;;15.38;8.52;;;2.20;96.30;;;;;;5034953;28;20410;-69
2021/01/07 05:28:03;;;;;;;11.95;8.10;;;2.10;96.60;;;;;;5035205;28;20171;-69
2021/01/07 05:30:31;;;;;;;9.60;6.60;;;2.10;96.80;;;;;;5033706;28;20680;-70
2021/01/07 05:33:01;;;;;;;11.07;7.60;;;2.00;96.90;;;;;;5034899;28;20204;-70
2021/01/07 05:35:27;;;;;;;10.32;5.82;;;1.90;96.90;;;;;;5034693;28;20525;-68
2021/01/07 05:37:53;;;;;;;8.73;5.95;;;1.80;97.00;;;;;;5033194;28;20172;-70
2021/01/07 05:40:21;;;;;;;12.50;6.67;;;1.70;97.00;;;;;;5034647;28;20772;-71
2021/01/07 05:42:47;;;;;;;8.38;6.22;;;1.60;97.10;;;;;;5034645;28;20429;-70
2021/01/07 05:45:17;;;;;;;11.40;6.73;;;1.60;97.20;;;;;;5034643;28;20634;-69
2021/01/07 05:47:45;;;;;;;14.27;8.10;;;1.60;97.20;;;;;;5034866;28;20804;-68
2021/01/07 05:50:12;;;;;;;11.40;7.35;;;1.60;97.40;;;;;;5034661;28;20205;-69
2021/01/07 05:52:42;;;;;;;13.35;7.47;;;1.50;97.50;;;;;;5034483;28;20203;-70
2021/01/07 05:55:08;;;;;;;13.70;6.75;;;1.60;97.60;;;;;;5034745;28;20232;-70
2021/01/07 05:57:37;;;;;;;12.95;7.53;;;1.50;97.80;;;;;;5032939;28;20182;-69
2021/01/07 06:00:05;;;;;;;17.35;6.72;;;1.50;97.90;;;;;;5034228;28;20245;-69
2021/01/07 06:02:33;;;;;;;21.38;8.35;;;1.40;97.90;;;;;;5034508;28;20253;-69
2021/01/07 06:05:03;;;;;;;16.58;7.22;;;1.40;98.20;;;;;;5034345;28;20199;-70
2021/01/07 06:07:30;;;;;;;12.05;7.03;;;1.40;98.10;;;;;;5034311;28;20519;-70
2021/01/07 06:09:57;;;;;;;14.10;8.90;;;1.30;98.20;;;;;;5034495;28;20201;-70
2021/01/07 06:12:24;;;;;;;11.73;5.75;;;1.30;98.40;;;;;;5034192;28;20190;-69
2021/01/07 06:14:50;;;;;;;13.80;9.10;;;1.30;98.20;;;;;;5034382;28;20524;-69
2021/01/07 06:17:19;;;;;;;11.53;7.83;;;1.40;98.10;;;;;;5034055;28;20163;-68
2021/01/07 06:19:45;;;;;;;9.27;6.55;;;1.50;98.00;;;;;;5033981;28;20183;-68
2021/01/07 06:22:17;;;;;;;12.27;7.30;;;1.50;98.00;;;;;;5033964;28;20177;-70
2021/01/07 06:24:45;;;;;;;12.52;6.28;;;1.50;97.80;;;;;;5034014;28;20175;-68
2021/01/07 06:27:22;;;;;;;15.52;6.57;;;1.60;97.70;;;;;;5033995;28;20170;-69
2021/01/07 06:29:48;;;;;;;9.02;5.65;;;1.70;97.70;;;;;;5033941;28;20191;-68
2021/01/07 06:32:17;;;;;;;8.77;6.18;;;1.80;97.50;;;;;;5033757;28;20269;-69
2021/01/07 06:34:48;;;;;;;14.27;8.60;;;1.70;97.40;;;;;;5034049;28;20175;-70
2021/01/07 06:37:14;;;;;;;10.43;7.97;;;1.80;97.40;;;;;;5033617;28;20167;-67
2021/01/07 06:39:44;;;;;;;15.30;8.00;;;1.80;97.30;;;;;;5033601;28;20187;-71
2021/01/07 06:42:18;;;;;;;10.63;7.10;;;1.90;97.30;;;;;;5033922;28;20261;-69
2021/01/07 06:44:45;;;;;;;14.15;7.20;;;1.90;97.10;;;;;;5033811;28;20174;-69
2021/01/07 06:47:21;;;;;;;15.80;6.97;;;1.80;97.00;;;;;;5033370;28;20224;-70
2021/01/07 06:49:50;;;;;;;14.70;6.32;;;1.70;97.20;;;;;;5033529;28;20267;-68
2021/01/07 06:52:20;;;;;;;10.52;7.68;;;1.70;97.30;;;;;;5033388;28;20209;-70
2021/01/07 06:54:47;;;;;;;14.55;6.35;;;1.50;97.30;;;;;;5033632;28;20585;-68
2021/01/07 06:57:14;;;;;;;11.43;5.45;;;1.50;97.40;;;;;;5033405;28;20172;-67
2021/01/07 07:00:00;;;;;;;11.88;5.55;;;1.40;97.70;;;;;;5033507;28;20291;-69
2021/01/07 07:02:27;;;;;;;9.88;5.85;;;1.50;97.70;;;;;;5033738;28;20253;-69
2021/01/07 07:05:10;;;;;;;9.65;6.03;;;1.40;97.70;;;;;;5033306;28;20636;-68
2021/01/07 07:07:39;;;;;;;12.48;7.55;;;1.50;97.80;;;;;;5033115;28;20179;-70
2021/01/07 07:10:23;;;;;;;12.25;6.05;;;1.50;97.70;;;;;;5033387;28;20668;-70
2021/01/07 07:12:50;;;;;;;8.10;6.70;;;1.70;97.80;;;;;;5033324;28;20194;-70
2021/01/07 07:15:17;;;;;;;9.60;5.88;;;1.80;97.60;;;;;;5033325;28;20196;-67
2021/01/07 07:17:47;;;;;;;11.77;5.97;;;1.80;97.40;;;;;;5033280;28;20201;-70
2021/01/07 07:20:20;;;;;;;10.82;6.70;;;1.90;97.20;;;;;;5033249;28;20322;-70
2021/01/07 07:22:46;;;;;;;9.18;6.88;;;1.80;96.90;;;;;;5033185;28;20217;-70
2021/01/07 07:25:20;;;;;;;14.15;8.20;;;1.90;97.00;;;;;;5033259;28;20189;-70
2021/01/07 07:27:49;;;;;;;7.00;5.47;;;1.80;96.90;;;;;;5033518;28;20195;-71
2021/01/07 07:30:25;;;;;;;6.43;5.80;;;1.80;97.10;;;;;;5033028;28;20191;-69
2021/01/07 07:32:51;;;;;;;13.13;7.57;;;1.80;97.00;;;;;;5031777;28;20213;-69
2021/01/07 07:35:24;;;;;;;11.07;5.13;;;1.90;96.80;;;;;;5032997;28;20171;-70
2021/01/07 07:37:51;;;;;;;13.88;5.22;;;1.90;96.80;;;;;;5033587;28;20170;-70
2021/01/07 07:40:40;;;;;;;11.75;5.57;;;2.00;96.80;;;;;;5033174;28;20195;-70
2021/01/07 07:43:08;;;;;;;9.10;6.35;;;2.00;96.70;;;;;;5033157;28;20209;-69
2021/01/07 07:45:35;;;;;;;8.70;5.40;;;2.10;96.80;;;;;;5031810;28;20538;-70
2021/01/07 07:48:02;;;;;;;6.82;5.63;;;2.10;96.60;;;;;;5033110;28;20186;-69
2021/01/07 07:50:29;;;;;;;10.00;5.78;;;2.10;96.50;;;;;;5032957;28;20234;-69
2021/01/07 07:53:04;;;;;;;12.73;6.28;;;2.20;96.50;;;;;;5033076;28;20198;-71
2021/01/07 07:55:37;;;;;;;10.93;5.75;;;2.30;96.50;;;;;;5032852;28;20187;-69
2021/01/07 07:58:20;;;;;;;12.23;5.60;;;2.30;96.30;;;;;;5032921;28;20182;-71
2021/01/07 08:00:49;;;;;;;12.43;8.35;;;2.40;96.10;;;;;;5035873;28;20214;-68
2021/01/07 08:03:32;;;;;;;20.15;7.00;;;2.40;96.00;;;;;;5036730;28;20634;-69
2021/01/07 08:05:59;;;;;;;9.88;6.28;;;2.50;96.10;;;;;;5036498;28;20171;-68
2021/01/07 08:08:27;;;;;;;15.45;7.22;;;2.50;95.90;;;;;;5036465;28;20587;-70
2021/01/07 08:10:54;;;;;;;13.70;7.35;;;2.60;95.80;;;;;;5036444;28;20200;-70
2021/01/07 08:13:23;;;;;;;11.07;6.70;;;2.60;95.70;;;;;;5036448;28;20194;-68
2021/01/07 08:15:54;;;;;;;12.52;8.07;;;2.70;95.60;;;;;;5036418;28;20607;-70
2021/01/07 08:18:22;;;;;;;15.05;7.38;;;2.70;95.50;;;;;;5036634;28;20180;-68
2021/01/07 08:20:51;;;;;;;7.22;5.10;;;2.80;95.40;;;;;;5036263;28;20195;-70
2021/01/07 08:23:19;;;;;;;9.32;6.85;;;2.90;95.30;;;;;;5035026;28;20276;-71
2021/01/07 08:25:47;;;;;;;7.88;5.88;;;2.90;95.00;;;;;;5036179;28;20186;-68
2021/01/07 08:28:30;;;;;;;6.47;5.85;;;3.00;94.90;;;;;;5036312;28;20206;-71
2021/01/07 08:31:12;;;;;;;8.98;5.68;;;3.10;94.80;;;;;;5036169;28;20191;-69
2021/01/07 08:33:38;;;;;;;13.40;7.35;;;3.20;94.60;;;;;;5036145;28;20175;-70
2021/01/07 08:36:09;;;;;;;19.02;8.95;;;3.30;94.60;;;;;;5036232;28;20183;-70
2021/01/07 08:38:36;;;;;;;12.05;6.85;;;3.40;94.50;;;;;;5036263;28;20576;-71
2021/01/07 08:41:18;;;;;;;12.30;7.50;;;3.50;94.20;;;;;;5035884;28;20188;-71
2021/01/07 08:43:46;;;;;;;10.93;4.95;;;3.60;93.80;;;;;;5036002;28;20223;-71
2021/01/07 08:46:16;;;;;;;7.20;5.85;;;3.70;93.50;;;;;;5035694;28;20166;-68
2021/01/07 08:49:00;;;;;;;5.70;3.53;;;3.70;93.20;;;;;;5035848;28;20201;-69
2021/01/07 08:51:27;;;;;;;9.25;5.65;;;3.70;93.10;;;;;;5034443;28;20629;-71
2021/01/07 08:53:56;;;;;;;7.85;5.38;;;3.70;93.30;;;;;;5035646;28;20170;-69
2021/01/07 08:56:49;;;;;;;9.10;6.15;;;3.80;93.20;;;;;;5035455;28;20192;-68
2021/01/07 08:59:36;;;;;;;6.65;4.13;;;3.90;93.10;;;;;;5033018;28;20210;-71
2021/01/07 09:02:02;;;;;;;10.55;5.47;;;3.90;93.00;;;;;;5035611;28;20187;-71
2021/01/07 09:04:34;;;;;;;6.40;4.90;;;3.90;92.90;;;;;;5035596;28;20210;-70
2021/01/07 09:07:03;;;;;;;5.13;3.60;;;3.80;92.70;;;;;;5035389;28;20191;-70
2021/01/07 09:09:51;;;;;;;6.47;4.72;;;3.80;92.90;;;;;;5035366;28;20239;-69
2021/01/07 09:12:27;;;;;;;5.57;4.05;;;3.90;93.00;;;;;;5034095;28;20194;-71
2021/01/07 09:14:57;;;;;;;8.05;6.18;;;4.00;92.90;;;;;;5035526;28;20192;-69
2021/01/07 09:17:38;;;;;;;7.57;3.97;;;4.10;92.50;;;;;;5034964;28;20205;-70
2021/01/07 09:20:15;;;;;;;8.10;4.28;;;4.10;92.20;;;;;;5035326;28;20190;-70
2021/01/07 09:22:42;;;;;;;7.47;4.57;;;4.10;92.00;;;;;;5035255;28;20193;-70
2021/01/07 09:25:11;;;;;;;4.18;3.78;;;4.20;92.10;;;;;;5035084;28;20201;-70
2021/01/07 09:27:36;;;;;;;9.43;5.53;;;4.30;92.20;;;;;;5035133;28;20183;-71
2021/01/07 09:30:04;;;;;;;4.87;4.20;;;4.40;92.00;;;;;;5035158;28;20668;-69
2021/01/07 09:32:30;;;;;;;4.63;4.03;;;4.50;91.50;;;;;;5035107;28;20240;-68
2021/01/07 09:34:55;;;;;;;5.60;4.40;;;4.60;91.60;;;;;;5035063;28;20206;-70
2021/01/07 09:37:22;;;;;;;5.30;3.93;;;4.60;91.20;;;;;;5034683;28;20624;-71
2021/01/07 09:39:52;;;;;;;6.93;4.40;;;4.40;91.20;;;;;;5034847;28;20269;-68
2021/01/07 09:42:18;;;;;;;5.07;3.63;;;4.40;91.30;;;;;;5033508;28;20736;-70
2021/01/07 09:44:49;;;;;;;8.20;5.47;;;4.50;91.60;;;;;;5034766;28;20250;-70
2021/01/07 09:47:15;;;;;;;4.32;3.67;;;4.80;91.50;;;;;;5034729;28;20541;-71
2021/01/07 09:49:41;;;;;;;7.90;3.75;;;5.10;90.70;;;;;;5034575;28;20191;-69
2021/01/07 09:52:07;;;;;;;4.70;3.70;;;5.20;90.40;;;;;;5034441;28;20216;-69
2021/01/07 09:54:33;;;;;;;5.47;3.90;;;5.40;90.20;;;;;;5034681;28;20409;-71
2021/01/07 09:57:01;;;;;;;5.90;4.30;;;5.40;89.50;;;;;;5034337;28;20455;-70
2021/01/07 09:59:29;;;;;;;5.35;3.28;;;5.30;90.00;;;;;;5034230;28;20430;-68
2021/01/07 10:01:56;;;;;;;7.75;4.93;;;5.40;90.00;;;;;;5033185;28;20663;-71
2021/01/07 10:04:22;;;;;;;6.30;3.70;;;5.40;89.70;;;;;;5034376;28;20185;-70
2021/01/07 10:06:49;;;;;;;4.50;3.90;;;5.30;90.00;;;;;;5034143;28;20704;-70
2021/01/07 10:09:15;;;;;;;4.65;3.85;;;5.30;89.50;;;;;;5034438;28;20207;-69
2021/01/07 10:11:40;;;;;;;5.77;3.90;;;5.20;88.90;;;;;;5034378;28;20293;-71
2021/01/07 10:14:06;;;;;;;8.83;3.43;;;5.30;89.20;;;;;;5034425;28;20401;-71
2021/01/07 10:16:32;;;;;;;4.87;4.03;;;5.60;89.00;;;;;;5034111;28;20305;-69
2021/01/07 10:18:58;;;;;;;4.20;3.80;;;5.90;88.10;;;;;;5034190;28;20532;-69
2021/01/07 10:21:24;;;;;;;20.63;5.97;;;5.90;86.20;;;;;;5034084;28;20175;-71
2021/01/07 10:23:52;;;;;;;5.88;4.03;;;5.90;86.40;;;;;;5033711;28;20174;-70
2021/01/07 10:26:19;;;;;;;4.50;3.30;;;6.00;86.60;;;;;;5034004;28;20171;-71
2021/01/07 10:28:47;;;;;;;5.38;2.90;;;6.00;86.50;;;;;;5034080;28;20165;-69
2021/01/07 10:31:15;;;;;;;3.50;3.20;;;6.10;85.40;;;;;;5033853;28;20183;-69
2021/01/07 10:33:42;;;;;;;3.45;3.03;;;5.80;85.70;;;;;;5034020;28;20655;-69
2021/01/07 10:36:08;;;;;;;3.10;2.70;;;5.60;86.30;;;;;;5033765;28;20175;-70
2021/01/07 10:38:36;;;;;;;4.18;2.95;;;5.60;87.40;;;;;;5033799;28;20167;-69
2021/01/07 10:41:05;;;;;;;4.57;3.30;;;5.60;86.30;;;;;;5033650;28;20216;-70
2021/01/07 10:43:32;;;;;;;3.60;3.17;;;5.50;86.30;;;;;;5033734;28;20162;-69
2021/01/07 10:45:58;;;;;;;4.30;3.63;;;5.40;86.40;;;;;;5033537;28;20202;-70
2021/01/07 10:48:25;;;;;;;3.00;2.70;;;5.20;86.90;;;;;;5033788;28;20563;-69
2021/01/07 10:50:51;;;;;;;5.55;3.50;;;5.10;87.70;;;;;;5033483;28;20185;-69
2021/01/07 10:53:45;;;;;;;8.82;4.85;;;5.00;87.90;;;;;;5033495;28;20202;-71
2021/01/07 10:56:49;;;;;;;5.28;4.07;;;4.90;88.80;;;;;;5033675;28;20170;-71
2021/01/07 10:59:58;;;;;;;5.65;4.03;;;4.80;89.20;;;;;;5030873;28;20290;-69
2021/01/07 11:02:42;;;;;;;6.05;3.17;;;4.80;89.70;;;;;;5033669;28;20182;-70
2021/01/07 11:05:21;;;;;;;3.95;2.78;;;4.70;89.90;;;;;;5032274;28;20579;-69
2021/01/07 11:08:01;;;;;;;4.53;3.35;;;4.60;89.60;;;;;;5033930;28;20209;-68
2021/01/07 11:10:29;;;;;;;9.50;4.10;;;4.70;89.90;;;;;;5033507;28;20197;-69
2021/01/07 11:13:01;;;;;;;9.82;6.80;;;4.70;89.90;;;;;;5033376;28;20199;-68
2021/01/07 11:15:28;;;;;;;6.15;4.65;;;4.50;89.60;;;;;;5033423;28;20194;-69
2021/01/07 11:18:07;;;;;;;7.07;4.60;;;4.20;90.20;;;;;;5033317;28;20248;-69
2021/01/07 11:20:36;;;;;;;6.20;3.88;;;4.10;90.70;;;;;;5033632;28;20218;-69
2021/01/07 11:23:05;;;;;;;5.10;3.13;;;4.10;90.90;;;;;;5033620;28;20545;-69
2021/01/07 11:25:31;;;;;;;13.05;6.00;;;4.10;90.90;;;;;;5033177;28;20618;-68
2021/01/07 11:28:00;;;;;;;9.25;5.13;;;4.00;91.10;;;;;;5033080;28;20176;-69
2021/01/07 11:30:26;;;;;;;5.05;4.55;;;4.00;91.30;;;;;;5033158;28;20190;-68
2021/01/07 11:32:53;;;;;;;8.60;5.60;;;4.00;91.40;;;;;;5033002;28;20206;-70
2021/01/07 11:35:19;;;;;;;6.20;4.53;;;4.00;91.40;;;;;;5035624;28;20191;-69
2021/01/07 11:38:00;;;;;;;6.50;5.67;;;4.00;91.40;;;;;;5037482;28;20641;-71
2021/01/07 11:40:48;;;;;;;9.52;4.68;;;4.10;91.50;;;;;;5037031;28;20190;-68
2021/01/07 11:43:27;;;;;;;4.20;3.90;;;4.30;91.20;;;;;;5037026;28;20567;-69
2021/01/07 11:45:59;;;;;;;8.27;5.22;;;4.20;91.00;;;;;;5036977;28;20170;-71
2021/01/07 11:48:29;;;;;;;5.38;3.47;;;4.10;91.20;;;;;;5037173;28;20575;-70
2021/01/07 11:51:07;;;;;;;9.35;7.22;;;3.90;91.60;;;;;;5037170;28;20201;-68
2021/01/07 11:53:33;;;;;;;8.18;6.22;;;3.90;91.90;;;;;;5037174;28;20245;-71
2021/01/07 11:56:01;;;;;;;6.97;4.88;;;3.90;92.00;;;;;;5036908;28;20169;-70
2021/01/07 11:58:30;;;;;;;5.43;3.63;;;4.10;92.10;;;;;;5036965;28;20209;-70
2021/01/07 12:00:59;;;;;;;7.07;4.22;;;4.30;91.80;;;;;;5036535;28;20687;-69
2021/01/07 12:03:33;;;;;;;7.05;4.57;;;4.30;91.40;;;;;;5036770;28;20185;-71
2021/01/07 12:06:07;;;;;;;7.43;4.97;;;4.30;91.40;;;;;;5036844;28;20218;-69
2021/01/07 12:08:59;;;;;;;6.65;4.78;;;4.20;91.40;;;;;;5036667;28;20170;-67
2021/01/07 12:11:35;;;;;;;7.90;5.15;;;4.20;91.40;;;;;;5036579;28;20174;-68
2021/01/07 12:14:11;;;;;;;7.30;4.53;;;4.00;91.50;;;;;;5036438;28;20178;-71
2021/01/07 12:16:50;;;;;;;11.40;7.70;;;3.80;91.60;;;;;;5036312;28;20165;-70
2021/01/07 12:19:16;;;;;;;5.40;4.82;;;3.70;92.00;;;;;;5036452;28;20243;-68
2021/01/07 12:21:42;;;;;;;11.13;6.88;;;3.50;92.40;;;;;;5036341;28;20266;-68
2021/01/07 12:24:11;;;;;;;8.45;5.55;;;3.50;92.60;;;;;;5036410;28;20181;-69
2021/01/07 12:26:37;;;;;;;9.18;6.70;;;3.40;92.70;;;;;;5036081;28;20166;-69
2021/01/07 12:29:02;;;;;;;10.17;7.10;;;3.50;92.80;;;;;;5036127;28;20184;-70
2021/01/07 12:31:31;;;;;;;8.60;5.73;;;3.50;92.60;;;;;;5035994;28;20182;-68
2021/01/07 12:34:18;;;;;;;37.05;19.60;;;3.70;92.50;;;;;;5036179;28;20258;-70
2021/01/07 12:37:05;;;;;;;29.10;16.15;;;3.70;92.20;;;;;;5035964;28;20174;-71
2021/01/07 12:39:39;;;;;;;26.75;15.23;;;3.90;92.30;;;;;;5036139;28;20225;-69
2021/01/07 12:42:12;;;;;;;41.13;21.00;;;4.00;91.90;;;;;;5036030;28;20590;-71
2021/01/07 12:44:44;;;;;;;23.20;11.95;;;4.20;91.80;;;;;;5036006;28;20175;-69
2021/01/07 12:47:09;;;;;;;12.85;9.13;;;4.30;91.50;;;;;;5036214;28;20632;-71
2021/01/07 12:49:35;;;;;;;4.97;4.47;;;4.40;91.50;;;;;;5035866;28;20210;-71
2021/01/07 12:52:03;;;;;;;8.47;5.30;;;4.20;91.50;;;;;;5035937;28;20211;-68
2021/01/07 12:54:29;;;;;;;7.07;5.78;;;4.10;91.90;;;;;;5035800;28;20737;-68
2021/01/07 12:57:15;;;;;;;10.73;7.60;;;4.10;91.90;;;;;;5035299;28;20532;-71
2021/01/07 12:59:58;;;;;;;7.25;4.65;;;4.20;91.70;;;;;;5034364;28;20289;-71